Time;durP1;ratioP1;P1;durP2;ratioP2;P2;SDS_P1;SDS_P2;PMS_P1;PMS_P2;Temp;Humidity;BMP_temperature;BMP_pressure;BME280_temperature;BME280_humidity;BME280_pressure;Samples;Min_cycle;Max_cycle;Signal;HPM_P1;HPM_P2
2022/08/17 00:01:20;;;;;;;17.20;15.60;;;;;;;;;;5135206;27;20528;-65
2022/08/17 00:03:49;;;;;;;18.30;16.53;;;;;;;;;;5135645;27;20473;-66
2022/08/17 00:06:17;;;;;;;16.80;14.57;;;;;;;;;;5135041;27;20445;-65
2022/08/17 00:08:46;;;;;;;18.27;16.37;;;;;;;;;;5134835;27;20438;-65
2022/08/17 00:11:15;;;;;;;16.90;15.40;;;;;;;;;;5134713;27;20521;-65
2022/08/17 00:13:45;;;;;;;17.70;15.90;;;;;;;;;;5135067;27;20445;-65
2022/08/17 00:16:14;;;;;;;15.83;14.53;;;;;;;;;;5134758;27;20449;-66
2022/08/17 00:18:44;;;;;;;18.63;17.13;;;;;;;;;;5135168;27;20525;-66
2022/08/17 00:21:13;;;;;;;18.60;16.80;;;;;;;;;;5135026;27;20476;-65
2022/08/17 00:23:41;;;;;;;20.33;16.30;;;;;;;;;;5134977;27;20500;-65
2022/08/17 00:26:08;;;;;;;16.07;14.67;;;;;;;;;;5134908;27;20445;-66
2022/08/17 00:28:35;;;;;;;17.30;15.57;;;;;;;;;;5134665;27;20931;-66
2022/08/17 00:31:03;;;;;;;18.53;16.67;;;;;;;;;;5134377;27;20449;-66
2022/08/17 00:33:31;;;;;;;17.73;16.13;;;;;;;;;;5135177;27;20442;-65
2022/08/17 00:36:00;;;;;;;17.10;15.50;;;;;;;;;;5134953;27;20444;-66
2022/08/17 00:38:28;;;;;;;19.00;16.13;;;;;;;;;;5134645;27;20442;-66
2022/08/17 00:40:56;;;;;;;16.47;15.00;;;;;;;;;;5134576;27;20601;-66
2022/08/17 00:43:27;;;;;;;20.17;16.23;;;;;;;;;;5134888;27;20580;-65
2022/08/17 00:45:54;;;;;;;17.97;16.40;;;;;;;;;;5134277;27;20509;-65
2022/08/17 00:48:22;;;;;;;18.17;16.10;;;;;;;;;;5134675;27;20524;-65
2022/08/17 00:50:52;;;;;;;19.07;17.37;;;;;;;;;;5134666;27;20431;-66
2022/08/17 00:53:21;;;;;;;18.93;17.13;;;;;;;;;;5134529;27;20443;-65
2022/08/17 00:55:48;;;;;;;18.63;17.03;;;;;;;;;;5134160;27;20495;-66
2022/08/17 00:58:15;;;;;;;17.90;16.37;;;;;;;;;;5134492;28;20451;-65
2022/08/17 01:00:44;;;;;;;19.10;17.20;;;;;;;;;;5134629;28;20536;-66
2022/08/17 01:03:13;;;;;;;19.70;17.77;;;;;;;;;;5134617;28;20533;-66
2022/08/17 01:05:41;;;;;;;19.13;17.20;;;;;;;;;;5134035;28;20931;-66
2022/08/17 01:08:11;;;;;;;19.13;17.20;;;;;;;;;;5134356;28;20532;-66
2022/08/17 01:10:42;;;;;;;19.90;18.10;;;;;;;;;;5134995;27;20438;-66
2022/08/17 01:13:10;;;;;;;20.70;18.80;;;;;;;;;;5133943;28;20528;-66
2022/08/17 01:15:40;;;;;;;19.87;18.00;;;;;;;;;;5134557;28;20475;-66
2022/08/17 01:18:09;;;;;;;21.10;19.07;;;;;;;;;;5134340;27;20449;-65
2022/08/17 01:20:36;;;;;;;19.80;18.00;;;;;;;;;;5134177;28;20439;-66
2022/08/17 01:23:05;;;;;;;21.20;19.03;;;;;;;;;;5133800;28;20536;-65
2022/08/17 01:25:32;;;;;;;19.40;17.70;;;;;;;;;;5134463;28;20476;-66
2022/08/17 01:28:00;;;;;;;19.67;17.87;;;;;;;;;;5134132;28;20444;-65
2022/08/17 01:30:27;;;;;;;19.83;18.23;;;;;;;;;;5136964;27;20977;-66
2022/08/17 01:32:54;;;;;;;20.23;18.53;;;;;;;;;;5138227;27;20532;-65
2022/08/17 01:35:21;;;;;;;20.27;18.57;;;;;;;;;;5137842;27;20480;-65
2022/08/17 01:37:48;;;;;;;20.03;18.37;;;;;;;;;;5137774;27;20997;-65
2022/08/17 01:40:22;;;;;;;20.30;18.60;;;;;;;;;;5138549;27;20775;-65
2022/08/17 01:42:52;;;;;;;19.77;18.17;;;;;;;;;;5137694;27;20414;-66
2022/08/17 01:45:22;;;;;;;20.40;18.23;;;;;;;;;;5138099;27;20490;-66
2022/08/17 01:47:49;;;;;;;18.70;16.90;;;;;;;;;;5138150;27;20440;-66
2022/08/17 01:50:18;;;;;;;18.93;17.17;;;;;;;;;;5137578;27;20528;-65
2022/08/17 01:52:46;;;;;;;17.93;16.30;;;;;;;;;;5137752;27;20467;-65
2022/08/17 01:55:15;;;;;;;18.80;16.93;;;;;;;;;;5138247;27;20523;-65
2022/08/17 01:57:45;;;;;;;19.10;17.30;;;;;;;;;;5137625;27;20458;-66
2022/08/17 02:00:13;;;;;;;18.83;17.03;;;;;;;;;;5137687;27;20460;-65
2022/08/17 02:02:41;;;;;;;18.17;16.70;;;;;;;;;;5137537;27;20492;-65
2022/08/17 02:05:09;;;;;;;22.20;17.50;;;;;;;;;;5137521;27;20480;-65
2022/08/17 02:07:36;;;;;;;18.67;16.87;;;;;;;;;;5137508;27;20460;-65
2022/08/17 02:10:04;;;;;;;18.90;16.90;;;;;;;;;;5137556;27;20508;-66
2022/08/17 02:12:31;;;;;;;19.77;17.83;;;;;;;;;;5137010;27;20436;-66
2022/08/17 02:14:59;;;;;;;18.33;16.13;;;;;;;;;;5137414;27;20829;-65
2022/08/17 02:17:27;;;;;;;19.07;17.30;;;;;;;;;;5136933;27;20532;-65
2022/08/17 02:19:54;;;;;;;17.63;16.13;;;;;;;;;;5137304;27;20440;-65
2022/08/17 02:22:21;;;;;;;18.07;16.40;;;;;;;;;;5137135;27;20526;-65
2022/08/17 02:24:48;;;;;;;19.70;17.57;;;;;;;;;;5136796;27;20481;-65
2022/08/17 02:27:15;;;;;;;17.57;16.00;;;;;;;;;;5137030;27;20445;-65
2022/08/17 02:29:43;;;;;;;19.30;17.60;;;;;;;;;;5136772;27;20442;-65
2022/08/17 02:32:17;;;;;;;19.27;17.47;;;;;;;;;;5137005;27;20994;-65
2022/08/17 02:34:45;;;;;;;19.43;17.33;;;;;;;;;;5136795;27;20519;-65
2022/08/17 02:37:12;;;;;;;20.43;18.00;;;;;;;;;;5136899;27;20447;-65
2022/08/17 02:39:39;;;;;;;17.73;16.03;;;;;;;;;;5136651;27;21010;-65
2022/08/17 02:42:06;;;;;;;18.17;16.43;;;;;;;;;;5135497;27;20798;-65
2022/08/17 02:44:34;;;;;;;20.30;18.40;;;;;;;;;;5137022;27;20478;-65
2022/08/17 02:47:01;;;;;;;23.93;18.20;;;;;;;;;;5136792;27;20439;-66
2022/08/17 02:49:29;;;;;;;18.30;16.50;;;;;;;;;;5137215;27;20942;-66
2022/08/17 02:51:57;;;;;;;19.07;17.07;;;;;;;;;;5136586;27;20435;-66
2022/08/17 02:54:24;;;;;;;20.37;17.70;;;;;;;;;;5136336;27;20475;-66
2022/08/17 02:56:51;;;;;;;19.27;17.63;;;;;;;;;;5136182;27;20436;-66
2022/08/17 02:59:18;;;;;;;19.93;18.20;;;;;;;;;;5136254;27;20449;-66
2022/08/17 03:01:46;;;;;;;18.97;17.17;;;;;;;;;;5136956;27;20467;-66
2022/08/17 03:04:13;;;;;;;19.00;17.30;;;;;;;;;;5136377;27;20893;-66
2022/08/17 03:06:42;;;;;;;21.40;19.20;;;;;;;;;;5135925;27;20526;-66
2022/08/17 03:09:09;;;;;;;21.10;19.00;;;;;;;;;;5136329;27;20431;-66
2022/08/17 03:11:36;;;;;;;20.20;18.20;;;;;;;;;;5136471;27;20428;-66
2022/08/17 03:14:03;;;;;;;19.00;17.10;;;;;;;;;;5135581;27;20511;-65
2022/08/17 03:16:31;;;;;;;21.27;19.33;;;;;;;;;;5136387;27;20474;-66
2022/08/17 03:18:58;;;;;;;24.23;18.10;;;;;;;;;;5136081;27;20440;-65
2022/08/17 03:21:25;;;;;;;19.47;17.77;;;;;;;;;;5136139;27;20445;-65
2022/08/17 03:23:53;;;;;;;21.80;19.80;;;;;;;;;;5135892;27;20439;-65
2022/08/17 03:26:21;;;;;;;22.87;20.47;;;;;;;;;;5135993;27;20439;-65
2022/08/17 03:28:48;;;;;;;21.90;19.60;;;;;;;;;;5135561;27;21009;-66
2022/08/17 03:31:17;;;;;;;21.50;19.40;;;;;;;;;;5135905;27;20467;-65
2022/08/17 03:33:44;;;;;;;22.43;20.10;;;;;;;;;;5135833;27;20806;-65
2022/08/17 03:36:11;;;;;;;21.17;19.07;;;;;;;;;;5135866;27;20482;-65
2022/08/17 03:38:38;;;;;;;20.40;18.53;;;;;;;;;;5135646;27;20454;-66
2022/08/17 03:41:07;;;;;;;21.70;19.60;;;;;;;;;;5135981;27;20454;-65
2022/08/17 03:43:35;;;;;;;24.00;21.60;;;;;;;;;;5135937;27;20538;-65
2022/08/17 03:57:04;;;;;;;23.30;20.93;;;;;;;;;;5134758;27;20400;-65
2022/08/17 03:59:32;;;;;;;22.40;20.30;;;;;;;;;;5134431;27;20974;-65
2022/08/17 04:02:02;;;;;;;23.13;20.57;;;;;;;;;;5134735;27;21062;-66
2022/08/17 04:04:29;;;;;;;23.07;20.57;;;;;;;;;;5135226;27;20559;-65
2022/08/17 04:06:57;;;;;;;24.13;20.97;;;;;;;;;;5134877;27;20453;-65
2022/08/17 04:09:24;;;;;;;23.10;20.90;;;;;;;;;;5135076;27;20448;-65
2022/08/17 04:11:52;;;;;;;23.80;20.70;;;;;;;;;;5135497;27;20435;-64
2022/08/17 04:14:20;;;;;;;22.67;20.40;;;;;;;;;;5134732;27;20470;-65
2022/08/17 04:16:48;;;;;;;21.90;19.80;;;;;;;;;;5135523;27;20888;-65
2022/08/17 04:19:15;;;;;;;21.30;19.10;;;;;;;;;;5134700;27;20973;-65
2022/08/17 04:21:42;;;;;;;22.20;19.80;;;;;;;;;;5134559;27;20919;-65
2022/08/17 04:24:10;;;;;;;22.47;20.07;;;;;;;;;;5134276;27;20451;-65
2022/08/17 04:26:37;;;;;;;28.37;20.80;;;;;;;;;;5134345;27;20442;-65
2022/08/17 04:29:04;;;;;;;21.20;18.77;;;;;;;;;;5134492;27;20503;-65
2022/08/17 04:31:33;;;;;;;21.43;19.37;;;;;;;;;;5134802;27;20758;-65
2022/08/17 04:34:00;;;;;;;22.90;20.70;;;;;;;;;;5134552;27;20439;-65
2022/08/17 04:36:28;;;;;;;30.73;20.73;;;;;;;;;;5134432;27;20455;-65
2022/08/17 04:38:55;;;;;;;22.50;20.43;;;;;;;;;;5134666;27;20436;-65
2022/08/17 04:44:07;;;;;;;26.33;20.93;;;;;;;;;;5134284;27;20481;-64
2022/08/17 04:46:36;;;;;;;22.57;19.40;;;;;;;;;;5134710;27;20491;-65
2022/08/17 04:49:04;;;;;;;20.07;17.97;;;;;;;;;;5134514;27;20431;-65
2022/08/17 04:51:33;;;;;;;25.77;18.57;;;;;;;;;;5134650;27;20528;-65
2022/08/17 04:54:01;;;;;;;19.97;17.87;;;;;;;;;;5133984;27;20455;-65
2022/08/17 04:56:29;;;;;;;20.50;18.27;;;;;;;;;;5134141;27;20450;-65
2022/08/17 04:58:59;;;;;;;21.43;19.20;;;;;;;;;;5134396;28;20936;-65
2022/08/17 05:01:27;;;;;;;21.63;19.33;;;;;;;;;;5134476;28;20435;-65
2022/08/17 05:03:59;;;;;;;21.03;18.93;;;;;;;;;;5134723;27;20446;-65
2022/08/17 05:06:27;;;;;;;21.07;18.80;;;;;;;;;;5138535;27;20467;-65
2022/08/17 05:08:55;;;;;;;22.17;19.03;;;;;;;;;;5138552;27;20955;-65
2022/08/17 05:11:24;;;;;;;21.73;18.87;;;;;;;;;;5138255;27;20445;-65
2022/08/17 05:13:51;;;;;;;22.50;20.20;;;;;;;;;;5138194;27;20452;-65
2022/08/17 05:16:19;;;;;;;20.17;18.17;;;;;;;;;;5138406;27;20914;-65
2022/08/17 05:18:47;;;;;;;23.23;20.67;;;;;;;;;;5138573;27;20436;-65
2022/08/17 05:21:15;;;;;;;22.90;20.40;;;;;;;;;;5138103;27;20434;-65
2022/08/17 05:23:43;;;;;;;28.27;21.57;;;;;;;;;;5138072;27;20865;-66
2022/08/17 05:26:11;;;;;;;22.80;20.40;;;;;;;;;;5138011;27;20987;-65
2022/08/17 05:28:39;;;;;;;24.37;19.70;;;;;;;;;;5138297;27;20431;-65
2022/08/17 05:31:06;;;;;;;21.83;19.50;;;;;;;;;;5137834;27;20444;-65
2022/08/17 05:33:34;;;;;;;21.53;19.53;;;;;;;;;;5138175;27;20805;-65
2022/08/17 05:36:02;;;;;;;22.10;19.80;;;;;;;;;;5138061;27;20534;-65
2022/08/17 05:38:31;;;;;;;26.07;20.27;;;;;;;;;;5138128;27;20435;-65
2022/08/17 05:40:59;;;;;;;33.43;27.10;;;;;;;;;;5137940;27;20440;-65
2022/08/17 05:43:27;;;;;;;21.57;19.50;;;;;;;;;;5137807;27;20443;-65
2022/08/17 05:45:57;;;;;;;23.37;17.90;;;;;;;;;;5137387;27;20530;-65
2022/08/17 05:48:25;;;;;;;20.17;18.13;;;;;;;;;;5137456;27;20453;-65
2022/08/17 05:50:56;;;;;;;20.10;18.17;;;;;;;;;;5137715;27;20468;-65
2022/08/17 05:53:29;;;;;;;20.43;18.40;;;;;;;;;;5137448;27;20441;-65
2022/08/17 05:56:02;;;;;;;21.10;18.97;;;;;;;;;;5137665;27;20514;-65
2022/08/17 05:58:33;;;;;;;21.63;19.33;;;;;;;;;;5137902;27;20445;-65
2022/08/17 06:01:03;;;;;;;20.50;18.40;;;;;;;;;;5137762;27;20444;-65
2022/08/17 06:03:38;;;;;;;21.47;19.30;;;;;;;;;;5137304;27;20920;-66
2022/08/17 06:06:10;;;;;;;21.30;19.00;;;;;;;;;;5137122;27;20453;-66
2022/08/17 06:08:42;;;;;;;20.20;18.13;;;;;;;;;;5137739;27;20509;-64
2022/08/17 06:11:16;;;;;;;19.63;17.83;;;;;;;;;;5137380;27;20430;-65
2022/08/17 06:13:54;;;;;;;20.37;18.10;;;;;;;;;;5137428;27;20444;-65
2022/08/17 06:16:25;;;;;;;20.47;17.80;;;;;;;;;;5137040;27;20429;-65
2022/08/17 06:18:57;;;;;;;29.40;17.90;;;;;;;;;;5137768;27;20429;-65
2022/08/17 06:21:25;;;;;;;20.03;17.90;;;;;;;;;;5137272;27;20422;-65
2022/08/17 06:23:54;;;;;;;22.60;17.90;;;;;;;;;;5137137;27;20444;-65
2022/08/17 06:26:25;;;;;;;23.80;20.50;;;;;;;;;;5137008;27;20472;-66
2022/08/17 06:28:54;;;;;;;19.57;17.63;;;;;;;;;;5136865;27;20505;-64
2022/08/17 06:31:28;;;;;;;23.10;17.37;;;;;;;;;;5136182;27;20506;-64
2022/08/17 06:33:55;;;;;;;22.33;17.70;;;;;;;;;;5135523;27;20429;-65
2022/08/17 06:36:31;;;;;;;20.60;18.63;;;;;;;;;;5135876;27;20460;-65
2022/08/17 06:39:04;;;;;;;20.43;18.53;;;;;;;;;;5137035;27;20441;-65
2022/08/17 06:41:38;;;;;;;19.73;17.93;;;;;;;;;;5136562;27;20418;-65
2022/08/17 06:44:11;;;;;;;18.73;17.17;;;;;;;;;;5136769;27;20537;-65
2022/08/17 06:46:39;;;;;;;20.23;18.20;;;;;;;;;;5136417;27;20476;-65
2022/08/17 06:49:12;;;;;;;19.07;17.23;;;;;;;;;;5136432;27;20438;-64
2022/08/17 06:51:40;;;;;;;22.00;17.73;;;;;;;;;;5136484;27;20907;-65
2022/08/17 06:54:11;;;;;;;28.57;18.30;;;;;;;;;;5136537;27;20611;-65
2022/08/17 06:56:42;;;;;;;19.20;17.37;;;;;;;;;;5136566;27;20513;-64
2022/08/17 06:59:11;;;;;;;19.70;17.70;;;;;;;;;;5136851;27;20426;-65
2022/08/17 07:01:40;;;;;;;18.77;16.97;;;;;;;;;;5136182;27;20537;-65
2022/08/17 07:04:10;;;;;;;19.60;16.87;;;;;;;;;;5136186;27;20879;-65
2022/08/17 07:06:39;;;;;;;17.20;15.40;;;;;;;;;;5136235;27;20478;-65
2022/08/17 07:09:08;;;;;;;20.27;16.90;;;;;;;;;;5136486;27;20449;-65
2022/08/17 07:11:38;;;;;;;22.90;15.70;;;;;;;;;;5136161;27;20875;-66
2022/08/17 07:14:12;;;;;;;16.10;14.60;;;;;;;;;;5136059;27;20564;-65
2022/08/17 07:16:42;;;;;;;19.03;15.87;;;;;;;;;;5136438;27;20437;-65
2022/08/17 07:19:10;;;;;;;15.47;13.83;;;;;;;;;;5136878;27;20445;-66
2022/08/17 07:21:41;;;;;;;17.47;14.60;;;;;;;;;;5135853;27;20473;-64
2022/08/17 07:24:14;;;;;;;27.03;16.07;;;;;;;;;;5136125;27;20752;-64
2022/08/17 07:26:41;;;;;;;23.97;17.60;;;;;;;;;;5135745;27;20461;-65
2022/08/17 07:29:10;;;;;;;17.87;15.97;;;;;;;;;;5135444;27;20540;-64
2022/08/17 07:31:38;;;;;;;24.13;16.73;;;;;;;;;;5135601;27;20445;-66
2022/08/17 07:34:13;;;;;;;21.23;17.40;;;;;;;;;;5136248;27;20783;-65
2022/08/17 07:36:40;;;;;;;26.33;17.20;;;;;;;;;;5134932;27;20481;-66
2022/08/17 07:39:08;;;;;;;21.17;14.53;;;;;;;;;;5135858;27;20438;-68
2022/08/17 07:41:39;;;;;;;15.90;14.40;;;;;;;;;;5135408;27;20952;-71
2022/08/17 07:44:13;;;;;;;18.00;14.83;;;;;;;;;;5135937;27;20453;-67
2022/08/17 07:49:35;;;;;;;16.13;14.50;;;;;;;;;;5135494;27;20403;-68
2022/08/17 07:52:05;;;;;;;15.73;14.13;;;;;;;;;;5135178;27;20441;-69
2022/08/17 07:54:35;;;;;;;20.63;14.73;;;;;;;;;;5135962;27;20530;-66
2022/08/17 07:57:05;;;;;;;16.80;14.70;;;;;;;;;;5135709;27;20419;-66
2022/08/17 07:59:34;;;;;;;17.90;14.60;;;;;;;;;;5135110;27;20529;-66
2022/08/17 08:02:23;;;;;;;18.10;13.40;;;;;;;;;;5135250;27;20792;-66
2022/08/17 08:04:59;;;;;;;21.40;13.10;;;;;;;;;;5135395;27;20844;-66
2022/08/17 08:07:29;;;;;;;17.90;13.70;;;;;;;;;;5135234;27;20467;-66
2022/08/17 08:10:05;;;;;;;16.07;13.73;;;;;;;;;;5134917;27;20535;-65
2022/08/17 08:12:34;;;;;;;14.93;13.50;;;;;;;;;;5134880;27;20458;-66
2022/08/17 08:15:04;;;;;;;15.90;13.10;;;;;;;;;;5135235;27;20800;-65
2022/08/17 08:17:34;;;;;;;19.87;14.30;;;;;;;;;;5134995;27;20427;-65
2022/08/17 08:20:03;;;;;;;21.13;13.53;;;;;;;;;;5134698;27;20466;-65
2022/08/17 08:22:35;;;;;;;17.43;13.27;;;;;;;;;;5134981;27;20430;-66
2022/08/17 08:25:11;;;;;;;22.00;13.40;;;;;;;;;;5134742;27;20425;-66
2022/08/17 08:27:44;;;;;;;13.70;12.27;;;;;;;;;;5134830;27;20467;-66
2022/08/17 08:30:14;;;;;;;12.90;11.00;;;;;;;;;;5135037;27;20434;-66
2022/08/17 08:32:52;;;;;;;13.40;11.60;;;;;;;;;;5135027;27;20489;-66
2022/08/17 08:35:25;;;;;;;19.30;11.43;;;;;;;;;;5135451;27;20399;-66
2022/08/17 08:37:54;;;;;;;12.77;10.47;;;;;;;;;;5135051;27;20404;-66
2022/08/17 08:40:33;;;;;;;16.03;11.37;;;;;;;;;;5134456;27;20501;-66
2022/08/17 08:43:08;;;;;;;14.33;10.87;;;;;;;;;;5134782;27;20830;-66
2022/08/17 08:45:43;;;;;;;11.73;10.53;;;;;;;;;;5135170;27;20426;-66
2022/08/17 08:48:15;;;;;;;12.57;9.97;;;;;;;;;;5134683;27;20626;-66
2022/08/17 08:50:49;;;;;;;12.03;10.10;;;;;;;;;;5135186;27;20568;-66
2022/08/17 08:53:22;;;;;;;11.23;10.10;;;;;;;;;;5134691;27;20445;-66
2022/08/17 08:55:52;;;;;;;17.10;11.03;;;;;;;;;;5134778;27;20414;-66
2022/08/17 08:58:22;;;;;;;12.43;10.33;;;;;;;;;;5134606;27;20425;-66
2022/08/17 09:00:52;;;;;;;10.53;9.53;;;;;;;;;;5134765;28;20461;-66
2022/08/17 09:03:43;;;;;;;9.53;8.73;;;;;;;;;;5134716;28;20430;-66
2022/08/17 09:06:21;;;;;;;15.10;8.80;;;;;;;;;;5114124;28;20510;-66
2022/08/17 09:08:54;;;;;;;9.73;8.83;;;;;;;;;;5134119;28;20521;-65
2022/08/17 09:11:24;;;;;;;9.50;8.60;;;;;;;;;;5134496;28;20431;-65
2022/08/17 09:13:55;;;;;;;11.30;9.97;;;;;;;;;;5133899;28;20515;-66
2022/08/17 09:16:28;;;;;;;10.90;8.50;;;;;;;;;;5134023;28;20405;-65
2022/08/17 09:18:58;;;;;;;8.50;7.60;;;;;;;;;;5134401;28;20424;-65
2022/08/17 09:21:29;;;;;;;20.57;8.70;;;;;;;;;;5134269;28;20528;-65
2022/08/17 09:24:03;;;;;;;8.70;7.80;;;;;;;;;;5133976;28;20419;-65
2022/08/17 09:26:34;;;;;;;9.43;7.93;;;;;;;;;;5134541;28;20524;-65
2022/08/17 09:29:04;;;;;;;10.50;7.57;;;;;;;;;;5134212;28;20492;-65
2022/08/17 09:31:34;;;;;;;13.70;8.30;;;;;;;;;;5134110;28;20901;-65
2022/08/17 09:34:03;;;;;;;9.97;8.53;;;;;;;;;;5134094;28;20447;-65
2022/08/17 09:36:34;;;;;;;8.27;7.10;;;;;;;;;;5134208;28;20447;-65
2022/08/17 09:39:03;;;;;;;10.63;7.10;;;;;;;;;;5133784;28;20424;-66
2022/08/17 09:41:34;;;;;;;9.90;6.83;;;;;;;;;;5134024;28;20413;-65
2022/08/17 09:44:03;;;;;;;8.20;7.10;;;;;;;;;;5132783;28;20539;-66
2022/08/17 09:46:32;;;;;;;8.17;6.80;;;;;;;;;;5132986;28;20469;-67
2022/08/17 09:49:03;;;;;;;9.53;7.43;;;;;;;;;;5133235;28;20461;-67
2022/08/17 09:51:33;;;;;;;18.30;9.50;;;;;;;;;;5136505;27;20411;-65
2022/08/17 09:54:01;;;;;;;14.37;8.40;;;;;;;;;;5137461;27;20505;-65
2022/08/17 09:56:35;;;;;;;11.57;7.63;;;;;;;;;;5137854;27;20434;-67
2022/08/17 09:59:23;;;;;;;13.83;7.47;;;;;;;;;;5137681;27;20391;-65
2022/08/17 10:01:56;;;;;;;9.93;7.60;;;;;;;;;;5102864;27;20424;-66
2022/08/17 10:04:32;;;;;;;8.87;7.83;;;;;;;;;;5137369;27;20485;-66
2022/08/17 10:07:03;;;;;;;9.23;8.13;;;;;;;;;;5137284;27;20450;-66
2022/08/17 10:09:37;;;;;;;8.60;7.33;;;;;;;;;;5137262;27;20418;-66
2022/08/17 10:12:18;;;;;;;15.63;8.00;;;;;;;;;;5137656;27;20406;-65
2022/08/17 10:14:50;;;;;;;12.70;7.80;;;;;;;;;;5136820;27;20990;-66
2022/08/17 10:17:21;;;;;;;8.30;6.80;;;;;;;;;;5137201;27;20409;-66
2022/08/17 10:19:56;;;;;;;7.77;6.97;;;;;;;;;;5137384;27;20436;-66
2022/08/17 10:27:59;;;;;;;10.20;8.23;;;;;;;;;;5136945;27;20498;-66
2022/08/17 10:30:28;;;;;;;12.80;11.70;;;;;;;;;;5136923;27;20456;-66
2022/08/17 10:32:58;;;;;;;24.90;19.07;;;;;;;;;;5136661;27;20411;-67
2022/08/17 10:35:35;;;;;;;13.43;8.03;;;;;;;;;;5136532;27;20446;-65
2022/08/17 10:38:20;;;;;;;14.00;8.30;;;;;;;;;;5137068;27;20505;-65
2022/08/17 10:40:50;;;;;;;12.47;8.10;;;;;;;;;;5136982;27;20504;-66
2022/08/17 10:43:24;;;;;;;8.07;7.37;;;;;;;;;;5137135;27;20509;-66
2022/08/17 10:45:56;;;;;;;11.37;7.63;;;;;;;;;;5136910;27;20433;-66
2022/08/17 10:48:28;;;;;;;10.23;7.27;;;;;;;;;;5136776;27;20483;-66
2022/08/17 10:51:06;;;;;;;13.57;7.50;;;;;;;;;;5136744;27;20405;-66
2022/08/17 10:53:53;;;;;;;13.73;8.27;;;;;;;;;;5136368;27;20427;-66
2022/08/17 10:56:22;;;;;;;9.37;7.83;;;;;;;;;;5136647;27;20780;-67
2022/08/17 10:58:52;;;;;;;11.87;6.87;;;;;;;;;;5136291;27;20997;-66
2022/08/17 11:01:20;;;;;;;7.90;6.23;;;;;;;;;;5136667;27;20398;-66
2022/08/17 11:03:52;;;;;;;11.53;7.30;;;;;;;;;;5135684;27;20500;-66
2022/08/17 11:06:24;;;;;;;10.00;7.50;;;;;;;;;;5136847;27;20426;-65
2022/08/17 11:09:11;;;;;;;9.10;6.30;;;;;;;;;;5136653;27;20404;-65
2022/08/17 11:11:46;;;;;;;6.93;6.27;;;;;;;;;;5136486;27;20774;-65
2022/08/17 11:14:34;;;;;;;10.00;7.20;;;;;;;;;;5136018;27;20995;-66
2022/08/17 11:17:09;;;;;;;7.53;6.60;;;;;;;;;;5130218;27;20789;-66
2022/08/17 11:19:57;;;;;;;7.53;5.83;;;;;;;;;;5135858;27;20424;-66
2022/08/17 11:22:42;;;;;;;10.53;6.80;;;;;;;;;;5101919;27;20554;-66
2022/08/17 11:25:13;;;;;;;9.73;6.20;;;;;;;;;;5094693;27;20438;-65
2022/08/17 11:27:42;;;;;;;10.97;6.87;;;;;;;;;;5136078;27;20552;-66
2022/08/17 11:30:12;;;;;;;8.77;7.60;;;;;;;;;;5136213;27;20407;-66
2022/08/17 11:32:41;;;;;;;8.40;7.60;;;;;;;;;;5135927;27;20473;-66
2022/08/17 11:35:23;;;;;;;7.40;6.70;;;;;;;;;;5135518;27;20438;-65
2022/08/17 11:37:57;;;;;;;7.17;6.67;;;;;;;;;;5132999;27;20914;-65
2022/08/17 11:40:35;;;;;;;9.23;7.03;;;;;;;;;;5135445;27;20459;-65
2022/08/17 11:43:15;;;;;;;15.90;8.33;;;;;;;;;;5135387;27;20394;-66
2022/08/17 11:46:03;;;;;;;11.70;7.23;;;;;;;;;;5135742;27;20774;-65
2022/08/17 11:51:36;;;;;;;8.53;6.97;;;;;;;;;;5093653;27;20418;-65
2022/08/17 11:54:06;;;;;;;8.77;7.87;;;;;;;;;;5135172;27;20398;-66
2022/08/17 11:56:39;;;;;;;7.90;6.73;;;;;;;;;;5134994;27;20530;-65
2022/08/17 11:59:21;;;;;;;8.13;6.83;;;;;;;;;;5135507;27;20423;-65
2022/08/17 12:01:54;;;;;;;7.47;6.47;;;;;;;;;;5135159;27;20508;-67
2022/08/17 12:04:26;;;;;;;8.90;6.87;;;;;;;;;;5135337;27;20416;-67
2022/08/17 12:06:55;;;;;;;9.33;6.33;;;;;;;;;;5135617;27;20441;-66
2022/08/17 12:09:25;;;;;;;9.43;8.20;;;;;;;;;;5134754;27;20414;-66
2022/08/17 12:11:54;;;;;;;8.40;7.03;;;;;;;;;;5134845;27;20421;-66
2022/08/17 12:14:25;;;;;;;9.77;7.37;;;;;;;;;;5134197;27;20536;-67
2022/08/17 12:17:00;;;;;;;10.83;7.50;;;;;;;;;;5135332;27;20806;-66
2022/08/17 12:19:28;;;;;;;7.43;6.73;;;;;;;;;;5134965;27;20513;-67
2022/08/17 12:21:58;;;;;;;7.00;6.40;;;;;;;;;;5135202;27;20459;-66
2022/08/17 12:24:32;;;;;;;10.63;6.83;;;;;;;;;;5134928;27;20455;-66
2022/08/17 12:27:03;;;;;;;10.17;7.50;;;;;;;;;;5134558;27;20553;-65
2022/08/17 12:29:31;;;;;;;9.27;7.33;;;;;;;;;;5135284;27;20427;-66
2022/08/17 12:32:00;;;;;;;11.03;7.53;;;;;;;;;;5134809;27;20417;-66
2022/08/17 12:34:29;;;;;;;12.40;8.10;;;;;;;;;;5134291;27;20414;-65
2022/08/17 12:37:00;;;;;;;7.60;6.83;;;;;;;;;;5134395;27;20414;-66
2022/08/17 12:39:28;;;;;;;9.40;8.40;;;;;;;;;;5134779;27;20397;-66
2022/08/17 12:41:57;;;;;;;7.80;7.03;;;;;;;;;;5134394;27;20439;-66
2022/08/17 12:44:28;;;;;;;8.17;7.13;;;;;;;;;;5134886;27;20846;-66
2022/08/17 12:46:57;;;;;;;10.87;7.60;;;;;;;;;;5134262;27;20480;-66
2022/08/17 12:49:29;;;;;;;10.70;8.70;;;;;;;;;;5134665;27;20446;-66
2022/08/17 12:52:01;;;;;;;9.40;8.50;;;;;;;;;;5134531;27;20427;-66
2022/08/17 12:54:32;;;;;;;10.97;9.77;;;;;;;;;;5135055;27;20433;-66
2022/08/17 12:57:01;;;;;;;12.30;8.03;;;;;;;;;;5134481;27;20456;-65
2022/08/17 12:59:32;;;;;;;13.67;7.37;;;;;;;;;;5134207;27;20432;-65
2022/08/17 13:02:00;;;;;;;8.87;8.07;;;;;;;;;;5134590;28;20431;-65
2022/08/17 13:04:28;;;;;;;8.07;7.37;;;;;;;;;;5134494;28;20461;-65
2022/08/17 13:06:56;;;;;;;9.57;7.53;;;;;;;;;;5134384;28;20416;-65
2022/08/17 13:09:29;;;;;;;7.53;6.83;;;;;;;;;;5134421;28;20504;-65
2022/08/17 13:12:00;;;;;;;8.67;7.47;;;;;;;;;;5134073;28;20409;-65
2022/08/17 13:14:28;;;;;;;7.60;6.80;;;;;;;;;;5134507;28;20482;-65
2022/08/17 13:16:58;;;;;;;7.00;6.50;;;;;;;;;;5133981;28;20925;-65
2022/08/17 13:19:27;;;;;;;7.13;6.43;;;;;;;;;;5134099;28;20414;-65
2022/08/17 13:21:55;;;;;;;7.90;6.10;;;;;;;;;;5133886;28;20476;-66
2022/08/17 13:24:24;;;;;;;6.87;6.17;;;;;;;;;;5134618;27;20469;-65
2022/08/17 13:26:54;;;;;;;10.00;5.80;;;;;;;;;;5137301;27;20509;-65
2022/08/17 13:29:23;;;;;;;6.37;5.60;;;;;;;;;;5138331;27;20442;-65
2022/08/17 13:31:52;;;;;;;11.63;6.50;;;;;;;;;;5138240;27;20414;-66
2022/08/17 13:34:32;;;;;;;6.00;5.37;;;;;;;;;;5137931;27;20502;-65
2022/08/17 13:37:14;;;;;;;5.30;4.80;;;;;;;;;;5138416;27;20433;-64
2022/08/17 13:39:41;;;;;;;5.57;5.07;;;;;;;;;;5137829;27;20517;-65
2022/08/17 13:42:24;;;;;;;5.67;5.27;;;;;;;;;;5138131;27;20447;-65
2022/08/17 13:44:51;;;;;;;5.57;5.00;;;;;;;;;;5137693;27;20421;-66
2022/08/17 13:47:20;;;;;;;5.50;5.13;;;;;;;;;;5138013;27;20524;-66
2022/08/17 13:49:49;;;;;;;5.23;4.73;;;;;;;;;;5138174;27;20441;-65
2022/08/17 13:52:33;;;;;;;4.97;4.47;;;;;;;;;;5137813;27;20828;-65
2022/08/17 13:55:02;;;;;;;7.00;4.60;;;;;;;;;;5138003;27;20827;-65
2022/08/17 13:57:29;;;;;;;6.67;6.07;;;;;;;;;;5137763;27;20465;-66
2022/08/17 14:00:06;;;;;;;5.90;4.70;;;;;;;;;;5138375;27;20747;-65
2022/08/17 14:02:34;;;;;;;4.70;4.30;;;;;;;;;;5137735;27;20403;-65
2022/08/17 14:05:02;;;;;;;5.97;5.27;;;;;;;;;;5137322;27;20445;-66
2022/08/17 14:07:32;;;;;;;5.10;4.70;;;;;;;;;;5137661;27;20997;-66
2022/08/17 14:10:01;;;;;;;4.97;4.57;;;;;;;;;;5137659;27;20499;-66
2022/08/17 14:12:30;;;;;;;7.40;5.23;;;;;;;;;;5137177;27;20526;-65
2022/08/17 14:14:58;;;;;;;6.57;4.47;;;;;;;;;;5136992;27;20538;-65
2022/08/17 14:17:27;;;;;;;7.40;6.70;;;;;;;;;;5137539;27;20466;-65
2022/08/17 14:19:56;;;;;;;5.37;4.80;;;;;;;;;;5137568;27;20724;-65
2022/08/17 14:22:26;;;;;;;5.33;4.83;;;;;;;;;;5137248;27;20468;-65
2022/08/17 14:24:54;;;;;;;9.03;5.70;;;;;;;;;;5137730;27;20513;-65
2022/08/17 14:27:21;;;;;;;6.87;6.37;;;;;;;;;;5137064;27;20828;-65
2022/08/17 14:29:48;;;;;;;13.30;7.10;;;;;;;;;;5136777;27;20435;-65
2022/08/17 14:32:18;;;;;;;6.20;5.60;;;;;;;;;;5137119;27;20798;-65
2022/08/17 14:34:46;;;;;;;7.70;6.33;;;;;;;;;;5137333;27;20532;-65
2022/08/17 14:37:13;;;;;;;7.40;6.33;;;;;;;;;;5136835;27;20447;-66
2022/08/17 14:39:42;;;;;;;8.53;6.70;;;;;;;;;;5136687;27;20473;-65
2022/08/17 14:42:10;;;;;;;6.00;5.50;;;;;;;;;;5136985;27;20862;-65
2022/08/17 14:44:37;;;;;;;7.27;6.40;;;;;;;;;;5137023;27;20457;-65
2022/08/17 14:47:05;;;;;;;8.03;7.37;;;;;;;;;;5136694;27;20844;-66
2022/08/17 14:49:32;;;;;;;7.40;6.80;;;;;;;;;;5136405;27;20488;-65
2022/08/17 14:52:00;;;;;;;6.10;5.70;;;;;;;;;;5136913;27;20527;-65
2022/08/17 14:54:28;;;;;;;14.13;7.70;;;;;;;;;;5136944;27;20475;-65
2022/08/17 14:56:56;;;;;;;7.63;5.80;;;;;;;;;;5136448;27;20445;-65
2022/08/17 14:59:23;;;;;;;6.90;6.13;;;;;;;;;;5136535;27;20521;-66
2022/08/17 15:01:51;;;;;;;6.90;6.10;;;;;;;;;;5136200;27;20446;-65
2022/08/17 15:04:18;;;;;;;7.17;6.57;;;;;;;;;;5135873;27;20450;-65
2022/08/17 15:06:46;;;;;;;8.47;7.77;;;;;;;;;;5136052;27;20446;-65
2022/08/17 15:09:13;;;;;;;7.50;6.93;;;;;;;;;;5136330;27;20527;-65